Abbyville, Kansas
Current Conditions -  °F | °C
As of 12:52 AM on Wednesday 22 Oct 2014 (Local Time) from KHUT Reporting Station
Clear Clear  
Wind Chill: 63°   Ceiling: Unl
Heat Index: 63°   Visibility: 9mi
Dew Point: 58°   Wind: 7mph
Humidity: 84%   Direction: 140°SE
Pressure: 30.03"   Gusts: NA
Location:  37.97°N, 98.2°W
Report Text: KHUT 220552Z AUTO 14006KT 9SM CLR 17/14 A3003 RMK AO2 SLP148 T01720144 10222 20172 402780078 58002
Loading
Personal Weather Stations






























Interactive Weather Map
Tropical Storm Tracking
New forecast layout! Learn more

10-Day Weather Forecast

Advertisements
Track Severe Weather on mobile